sensor_id;sensor_type;location;lat;lon;timestamp;P1;durP1;ratioP1;P2;durP2;ratioP2
71207;SDS011;58938;49.868;8.646;2023-08-06T00:02:14;7.03;;;3.60;;
71207;SDS011;58938;49.868;8.646;2023-08-06T00:04:40;5.70;;;3.33;;
71207;SDS011;58938;49.868;8.646;2023-08-06T00:07:06;6.55;;;3.78;;
71207;SDS011;58938;49.868;8.646;2023-08-06T00:09:32;6.47;;;3.47;;
71207;SDS011;58938;49.868;8.646;2023-08-06T00:11:58;7.43;;;3.75;;
71207;SDS011;58938;49.868;8.646;2023-08-06T00:14:24;6.13;;;3.30;;
71207;SDS011;58938;49.868;8.646;2023-08-06T00:16:50;6.82;;;3.78;;
71207;SDS011;58938;49.868;8.646;2023-08-06T00:19:16;5.87;;;3.53;;
71207;SDS011;58938;49.868;8.646;2023-08-06T00:21:42;7.28;;;3.55;;
71207;SDS011;58938;49.868;8.646;2023-08-06T00:24:08;6.15;;;3.45;;
71207;SDS011;58938;49.868;8.646;2023-08-06T00:26:34;5.55;;;3.10;;
71207;SDS011;58938;49.868;8.646;2023-08-06T00:29:00;7.67;;;3.13;;
71207;SDS011;58938;49.868;8.646;2023-08-06T00:31:26;8.17;;;3.60;;
71207;SDS011;58938;49.868;8.646;2023-08-06T00:33:52;8.10;;;3.00;;
71207;SDS011;58938;49.868;8.646;2023-08-06T00:36:18;5.93;;;3.13;;
71207;SDS011;58938;49.868;8.646;2023-08-06T00:38:44;6.20;;;3.43;;
71207;SDS011;58938;49.868;8.646;2023-08-06T00:41:10;7.45;;;3.17;;
71207;SDS011;58938;49.868;8.646;2023-08-06T00:43:36;6.03;;;3.55;;
71207;SDS011;58938;49.868;8.646;2023-08-06T00:46:02;7.38;;;3.30;;
71207;SDS011;58938;49.868;8.646;2023-08-06T00:48:28;7.88;;;4.18;;
71207;SDS011;58938;49.868;8.646;2023-08-06T00:50:54;7.00;;;3.50;;
71207;SDS011;58938;49.868;8.646;2023-08-06T00:53:20;5.93;;;3.38;;
71207;SDS011;58938;49.868;8.646;2023-08-06T00:55:46;8.55;;;3.22;;
71207;SDS011;58938;49.868;8.646;2023-08-06T00:58:13;5.80;;;3.13;;
71207;SDS011;58938;49.868;8.646;2023-08-06T01:00:40;5.63;;;3.10;;
71207;SDS011;58938;49.868;8.646;2023-08-06T01:03:06;7.50;;;3.15;;
71207;SDS011;58938;49.868;8.646;2023-08-06T01:05:31;7.00;;;3.83;;
71207;SDS011;58938;49.868;8.646;2023-08-06T01:13:16;7.03;;;3.30;;
71207;SDS011;58938;49.868;8.646;2023-08-06T01:15:44;7.32;;;3.13;;
71207;SDS011;58938;49.868;8.646;2023-08-06T01:18:10;7.60;;;3.72;;
71207;SDS011;58938;49.868;8.646;2023-08-06T01:20:37;8.25;;;3.75;;
71207;SDS011;58938;49.868;8.646;2023-08-06T01:23:02;8.47;;;3.33;;
71207;SDS011;58938;49.868;8.646;2023-08-06T01:25:55;8.00;;;3.08;;
71207;SDS011;58938;49.868;8.646;2023-08-06T01:28:27;5.53;;;2.95;;
71207;SDS011;58938;49.868;8.646;2023-08-06T01:30:58;5.57;;;3.00;;
71207;SDS011;58938;49.868;8.646;2023-08-06T01:33:25;6.45;;;3.00;;
71207;SDS011;58938;49.868;8.646;2023-08-06T01:35:53;6.47;;;3.10;;
71207;SDS011;58938;49.868;8.646;2023-08-06T01:38:19;5.82;;;2.70;;
71207;SDS011;58938;49.868;8.646;2023-08-06T01:40:45;5.20;;;2.30;;
71207;SDS011;58938;49.868;8.646;2023-08-06T01:43:11;6.85;;;2.60;;
71207;SDS011;58938;49.868;8.646;2023-08-06T01:45:37;6.43;;;4.07;;
71207;SDS011;58938;49.868;8.646;2023-08-06T01:48:03;5.43;;;2.88;;
71207;SDS011;58938;49.868;8.646;2023-08-06T01:50:29;6.18;;;2.63;;
71207;SDS011;58938;49.868;8.646;2023-08-06T01:52:55;6.35;;;2.72;;
71207;SDS011;58938;49.868;8.646;2023-08-06T01:55:21;7.13;;;2.50;;
71207;SDS011;58938;49.868;8.646;2023-08-06T01:57:47;5.05;;;2.50;;
71207;SDS011;58938;49.868;8.646;2023-08-06T02:00:13;6.88;;;2.53;;
71207;SDS011;58938;49.868;8.646;2023-08-06T02:02:39;5.93;;;2.40;;
71207;SDS011;58938;49.868;8.646;2023-08-06T02:05:06;5.67;;;2.20;;
71207;SDS011;58938;49.868;8.646;2023-08-06T02:07:32;6.47;;;2.30;;
71207;SDS011;58938;49.868;8.646;2023-08-06T02:09:58;7.07;;;2.70;;
71207;SDS011;58938;49.868;8.646;2023-08-06T02:12:23;6.65;;;2.63;;
71207;SDS011;58938;49.868;8.646;2023-08-06T02:14:49;4.33;;;2.33;;
71207;SDS011;58938;49.868;8.646;2023-08-06T02:17:15;5.35;;;2.40;;
71207;SDS011;58938;49.868;8.646;2023-08-06T02:19:41;5.22;;;2.67;;
71207;SDS011;58938;49.868;8.646;2023-08-06T02:22:08;7.82;;;2.90;;
71207;SDS011;58938;49.868;8.646;2023-08-06T02:24:34;4.60;;;2.30;;
71207;SDS011;58938;49.868;8.646;2023-08-06T02:27:00;5.68;;;2.25;;
71207;SDS011;58938;49.868;8.646;2023-08-06T02:29:26;5.38;;;2.40;;
71207;SDS011;58938;49.868;8.646;2023-08-06T02:31:52;4.68;;;2.28;;
71207;SDS011;58938;49.868;8.646;2023-08-06T02:34:18;5.40;;;2.40;;
71207;SDS011;58938;49.868;8.646;2023-08-06T02:36:44;6.45;;;2.35;;
71207;SDS011;58938;49.868;8.646;2023-08-06T02:39:09;5.25;;;2.05;;
71207;SDS011;58938;49.868;8.646;2023-08-06T02:41:35;6.80;;;2.45;;
71207;SDS011;58938;49.868;8.646;2023-08-06T02:44:01;8.80;;;2.67;;
71207;SDS011;58938;49.868;8.646;2023-08-06T02:46:27;5.30;;;2.30;;
71207;SDS011;58938;49.868;8.646;2023-08-06T02:48:53;7.00;;;2.22;;
71207;SDS011;58938;49.868;8.646;2023-08-06T02:51:19;4.55;;;2.17;;
71207;SDS011;58938;49.868;8.646;2023-08-06T02:53:45;5.17;;;2.10;;
71207;SDS011;58938;49.868;8.646;2023-08-06T02:56:14;7.13;;;2.55;;
71207;SDS011;58938;49.868;8.646;2023-08-06T02:58:39;5.07;;;2.10;;
71207;SDS011;58938;49.868;8.646;2023-08-06T03:01:06;7.17;;;2.40;;
71207;SDS011;58938;49.868;8.646;2023-08-06T03:03:32;5.45;;;2.17;;
71207;SDS011;58938;49.868;8.646;2023-08-06T03:05:58;5.28;;;2.88;;
71207;SDS011;58938;49.868;8.646;2023-08-06T03:08:24;5.90;;;2.22;;
71207;SDS011;58938;49.868;8.646;2023-08-06T03:10:51;6.78;;;2.10;;
71207;SDS011;58938;49.868;8.646;2023-08-06T03:13:17;8.33;;;2.47;;
71207;SDS011;58938;49.868;8.646;2023-08-06T03:15:43;4.97;;;2.25;;
71207;SDS011;58938;49.868;8.646;2023-08-06T03:18:09;7.03;;;2.65;;
71207;SDS011;58938;49.868;8.646;2023-08-06T03:20:35;6.00;;;2.50;;
71207;SDS011;58938;49.868;8.646;2023-08-06T03:23:01;5.22;;;2.50;;
71207;SDS011;58938;49.868;8.646;2023-08-06T03:25:27;5.13;;;2.50;;
71207;SDS011;58938;49.868;8.646;2023-08-06T03:27:53;6.97;;;2.20;;
71207;SDS011;58938;49.868;8.646;2023-08-06T03:30:19;5.47;;;2.72;;
71207;SDS011;58938;49.868;8.646;2023-08-06T03:32:45;6.03;;;2.30;;
71207;SDS011;58938;49.868;8.646;2023-08-06T03:35:12;4.60;;;2.20;;
71207;SDS011;58938;49.868;8.646;2023-08-06T03:37:38;4.72;;;2.58;;
71207;SDS011;58938;49.868;8.646;2023-08-06T03:40:04;9.77;;;2.92;;
71207;SDS011;58938;49.868;8.646;2023-08-06T03:42:30;4.90;;;2.73;;
71207;SDS011;58938;49.868;8.646;2023-08-06T03:44:56;5.40;;;2.50;;
71207;SDS011;58938;49.868;8.646;2023-08-06T03:47:22;5.53;;;2.85;;
71207;SDS011;58938;49.868;8.646;2023-08-06T03:49:48;5.22;;;2.53;;
71207;SDS011;58938;49.868;8.646;2023-08-06T03:52:14;5.03;;;2.40;;
71207;SDS011;58938;49.868;8.646;2023-08-06T03:54:40;7.50;;;2.50;;
71207;SDS011;58938;49.868;8.646;2023-08-06T03:57:08;5.70;;;2.13;;
71207;SDS011;58938;49.868;8.646;2023-08-06T03:59:34;6.43;;;2.58;;
71207;SDS011;58938;49.868;8.646;2023-08-06T04:02:00;5.57;;;2.42;;
71207;SDS011;58938;49.868;8.646;2023-08-06T04:04:26;4.93;;;2.47;;
71207;SDS011;58938;49.868;8.646;2023-08-06T04:06:52;7.90;;;3.00;;
71207;SDS011;58938;49.868;8.646;2023-08-06T04:09:18;6.28;;;2.60;;
71207;SDS011;58938;49.868;8.646;2023-08-06T04:11:44;7.10;;;3.17;;
71207;SDS011;58938;49.868;8.646;2023-08-06T04:14:10;4.85;;;2.10;;
71207;SDS011;58938;49.868;8.646;2023-08-06T04:16:36;5.25;;;2.60;;
71207;SDS011;58938;49.868;8.646;2023-08-06T04:19:02;5.13;;;2.70;;
71207;SDS011;58938;49.868;8.646;2023-08-06T04:21:27;5.70;;;2.50;;
71207;SDS011;58938;49.868;8.646;2023-08-06T04:23:53;6.30;;;2.92;;
71207;SDS011;58938;49.868;8.646;2023-08-06T04:26:19;10.18;;;2.70;;
71207;SDS011;58938;49.868;8.646;2023-08-06T04:28:45;7.25;;;2.70;;
71207;SDS011;58938;49.868;8.646;2023-08-06T04:31:11;7.07;;;2.80;;
71207;SDS011;58938;49.868;8.646;2023-08-06T04:33:37;9.85;;;2.90;;
71207;SDS011;58938;49.868;8.646;2023-08-06T04:36:03;6.88;;;2.92;;
71207;SDS011;58938;49.868;8.646;2023-08-06T04:38:29;5.97;;;3.17;;
71207;SDS011;58938;49.868;8.646;2023-08-06T04:40:55;5.90;;;2.60;;
71207;SDS011;58938;49.868;8.646;2023-08-06T04:43:21;6.57;;;2.90;;
71207;SDS011;58938;49.868;8.646;2023-08-06T04:45:51;9.93;;;3.13;;
71207;SDS011;58938;49.868;8.646;2023-08-06T04:48:18;5.95;;;2.95;;
71207;SDS011;58938;49.868;8.646;2023-08-06T04:50:44;5.67;;;2.90;;
71207;SDS011;58938;49.868;8.646;2023-08-06T04:53:10;5.82;;;2.60;;
71207;SDS011;58938;49.868;8.646;2023-08-06T04:55:36;6.07;;;2.88;;
71207;SDS011;58938;49.868;8.646;2023-08-06T04:58:02;6.68;;;2.80;;
71207;SDS011;58938;49.868;8.646;2023-08-06T05:00:29;4.75;;;2.65;;
71207;SDS011;58938;49.868;8.646;2023-08-06T05:02:55;8.17;;;2.20;;
71207;SDS011;58938;49.868;8.646;2023-08-06T05:05:21;5.55;;;2.40;;
71207;SDS011;58938;49.868;8.646;2023-08-06T05:07:47;5.93;;;2.50;;
71207;SDS011;58938;49.868;8.646;2023-08-06T05:10:13;5.40;;;2.10;;
71207;SDS011;58938;49.868;8.646;2023-08-06T05:12:40;6.80;;;2.10;;
71207;SDS011;58938;49.868;8.646;2023-08-06T05:15:06;5.63;;;2.10;;
71207;SDS011;58938;49.868;8.646;2023-08-06T05:17:32;5.45;;;2.17;;
71207;SDS011;58938;49.868;8.646;2023-08-06T05:19:58;7.57;;;3.65;;
71207;SDS011;58938;49.868;8.646;2023-08-06T05:22:24;5.47;;;2.33;;
71207;SDS011;58938;49.868;8.646;2023-08-06T05:24:50;6.70;;;1.90;;
71207;SDS011;58938;49.868;8.646;2023-08-06T05:27:16;5.25;;;2.10;;
71207;SDS011;58938;49.868;8.646;2023-08-06T05:29:44;6.05;;;2.33;;
71207;SDS011;58938;49.868;8.646;2023-08-06T05:32:10;5.10;;;1.90;;
71207;SDS011;58938;49.868;8.646;2023-08-06T05:34:36;5.17;;;1.90;;
71207;SDS011;58938;49.868;8.646;2023-08-06T05:37:02;4.55;;;2.15;;
71207;SDS011;58938;49.868;8.646;2023-08-06T05:39:28;6.18;;;2.50;;
71207;SDS011;58938;49.868;8.646;2023-08-06T05:41:54;5.53;;;1.80;;
71207;SDS011;58938;49.868;8.646;2023-08-06T05:44:20;4.95;;;1.88;;
71207;SDS011;58938;49.868;8.646;2023-08-06T05:46:46;6.83;;;2.00;;
71207;SDS011;58938;49.868;8.646;2023-08-06T05:49:12;5.68;;;2.00;;
71207;SDS011;58938;49.868;8.646;2023-08-06T05:51:38;6.45;;;2.00;;
71207;SDS011;58938;49.868;8.646;2023-08-06T05:54:04;6.82;;;2.15;;
71207;SDS011;58938;49.868;8.646;2023-08-06T05:56:30;5.03;;;2.33;;
71207;SDS011;58938;49.868;8.646;2023-08-06T05:58:56;5.93;;;2.00;;
71207;SDS011;58938;49.868;8.646;2023-08-06T06:01:22;5.25;;;2.20;;
71207;SDS011;58938;49.868;8.646;2023-08-06T06:03:48;7.88;;;2.22;;
71207;SDS011;58938;49.868;8.646;2023-08-06T06:06:14;4.60;;;2.22;;
71207;SDS011;58938;49.868;8.646;2023-08-06T06:08:41;5.97;;;2.50;;
71207;SDS011;58938;49.868;8.646;2023-08-06T06:11:07;4.40;;;2.25;;
71207;SDS011;58938;49.868;8.646;2023-08-06T06:13:33;7.60;;;2.75;;
71207;SDS011;58938;49.868;8.646;2023-08-06T06:15:59;7.93;;;2.28;;
71207;SDS011;58938;49.868;8.646;2023-08-06T06:18:25;6.97;;;2.40;;
71207;SDS011;58938;49.868;8.646;2023-08-06T06:20:51;5.97;;;2.22;;
71207;SDS011;58938;49.868;8.646;2023-08-06T06:23:17;7.15;;;2.22;;
71207;SDS011;58938;49.868;8.646;2023-08-06T06:25:43;5.47;;;2.20;;
71207;SDS011;58938;49.868;8.646;2023-08-06T06:28:09;6.30;;;2.42;;
71207;SDS011;58938;49.868;8.646;2023-08-06T06:30:35;8.13;;;2.30;;
71207;SDS011;58938;49.868;8.646;2023-08-06T06:33:01;5.25;;;1.80;;
71207;SDS011;58938;49.868;8.646;2023-08-06T06:35:27;6.15;;;2.10;;
71207;SDS011;58938;49.868;8.646;2023-08-06T06:37:53;6.87;;;2.13;;
71207;SDS011;58938;49.868;8.646;2023-08-06T06:40:19;6.60;;;2.08;;
71207;SDS011;58938;49.868;8.646;2023-08-06T06:42:45;7.18;;;1.80;;
71207;SDS011;58938;49.868;8.646;2023-08-06T06:45:11;4.35;;;2.00;;
71207;SDS011;58938;49.868;8.646;2023-08-06T06:47:37;5.47;;;2.10;;
71207;SDS011;58938;49.868;8.646;2023-08-06T06:50:03;4.50;;;1.77;;
71207;SDS011;58938;49.868;8.646;2023-08-06T06:52:29;5.60;;;1.80;;
71207;SDS011;58938;49.868;8.646;2023-08-06T06:54:55;3.83;;;1.42;;
71207;SDS011;58938;49.868;8.646;2023-08-06T06:57:21;3.93;;;1.60;;
71207;SDS011;58938;49.868;8.646;2023-08-06T06:59:47;6.10;;;1.73;;
71207;SDS011;58938;49.868;8.646;2023-08-06T07:02:13;6.13;;;1.73;;
71207;SDS011;58938;49.868;8.646;2023-08-06T07:04:39;4.17;;;1.83;;
71207;SDS011;58938;49.868;8.646;2023-08-06T07:07:05;4.85;;;1.33;;
71207;SDS011;58938;49.868;8.646;2023-08-06T07:09:31;4.40;;;1.90;;
71207;SDS011;58938;49.868;8.646;2023-08-06T07:11:56;6.18;;;1.88;;
71207;SDS011;58938;49.868;8.646;2023-08-06T07:14:24;4.90;;;1.53;;
71207;SDS011;58938;49.868;8.646;2023-08-06T07:16:51;4.32;;;1.60;;
71207;SDS011;58938;49.868;8.646;2023-08-06T07:19:17;7.80;;;2.60;;
71207;SDS011;58938;49.868;8.646;2023-08-06T07:21:43;5.97;;;2.00;;
71207;SDS011;58938;49.868;8.646;2023-08-06T07:24:09;5.87;;;2.07;;
71207;SDS011;58938;49.868;8.646;2023-08-06T07:26:35;4.10;;;1.50;;
71207;SDS011;58938;49.868;8.646;2023-08-06T07:29:01;5.47;;;1.73;;
71207;SDS011;58938;49.868;8.646;2023-08-06T07:31:27;3.83;;;1.60;;
71207;SDS011;58938;49.868;8.646;2023-08-06T07:33:53;6.67;;;1.60;;
71207;SDS011;58938;49.868;8.646;2023-08-06T07:36:18;5.03;;;2.00;;
71207;SDS011;58938;49.868;8.646;2023-08-06T07:38:44;9.73;;;2.00;;
71207;SDS011;58938;49.868;8.646;2023-08-06T07:41:10;5.10;;;2.22;;
71207;SDS011;58938;49.868;8.646;2023-08-06T07:43:36;5.03;;;2.33;;
71207;SDS011;58938;49.868;8.646;2023-08-06T07:46:03;4.30;;;2.03;;
71207;SDS011;58938;49.868;8.646;2023-08-06T07:48:29;6.80;;;1.95;;
71207;SDS011;58938;49.868;8.646;2023-08-06T07:50:55;6.53;;;1.85;;
71207;SDS011;58938;49.868;8.646;2023-08-06T07:53:21;4.03;;;1.47;;
71207;SDS011;58938;49.868;8.646;2023-08-06T07:55:51;4.57;;;1.80;;
71207;SDS011;58938;49.868;8.646;2023-08-06T07:58:17;6.53;;;2.13;;
71207;SDS011;58938;49.868;8.646;2023-08-06T08:00:43;7.93;;;2.03;;
71207;SDS011;58938;49.868;8.646;2023-08-06T08:03:10;5.35;;;2.03;;
71207;SDS011;58938;49.868;8.646;2023-08-06T08:05:37;4.67;;;1.83;;
71207;SDS011;58938;49.868;8.646;2023-08-06T08:08:03;5.55;;;2.00;;
71207;SDS011;58938;49.868;8.646;2023-08-06T08:10:29;4.45;;;1.90;;
71207;SDS011;58938;49.868;8.646;2023-08-06T08:12:56;6.97;;;2.30;;
71207;SDS011;58938;49.868;8.646;2023-08-06T08:15:22;6.00;;;2.10;;
71207;SDS011;58938;49.868;8.646;2023-08-06T08:17:48;6.20;;;1.97;;
71207;SDS011;58938;49.868;8.646;2023-08-06T08:20:16;6.20;;;2.03;;
71207;SDS011;58938;49.868;8.646;2023-08-06T08:22:42;5.28;;;1.60;;
71207;SDS011;58938;49.868;8.646;2023-08-06T08:25:08;4.22;;;1.60;;
71207;SDS011;58938;49.868;8.646;2023-08-06T08:27:34;4.00;;;1.67;;
71207;SDS011;58938;49.868;8.646;2023-08-06T08:30:00;5.00;;;1.80;;
71207;SDS011;58938;49.868;8.646;2023-08-06T08:32:26;6.65;;;1.83;;
71207;SDS011;58938;49.868;8.646;2023-08-06T08:34:51;5.15;;;1.95;;
71207;SDS011;58938;49.868;8.646;2023-08-06T08:37:18;4.85;;;1.98;;
71207;SDS011;58938;49.868;8.646;2023-08-06T08:39:44;3.77;;;1.70;;
71207;SDS011;58938;49.868;8.646;2023-08-06T08:42:10;5.13;;;1.52;;
71207;SDS011;58938;49.868;8.646;2023-08-06T08:44:36;4.13;;;1.48;;
71207;SDS011;58938;49.868;8.646;2023-08-06T08:47:06;6.45;;;2.03;;
71207;SDS011;58938;49.868;8.646;2023-08-06T08:49:34;5.20;;;1.70;;
71207;SDS011;58938;49.868;8.646;2023-08-06T08:52:01;4.25;;;1.75;;
71207;SDS011;58938;49.868;8.646;2023-08-06T08:54:27;4.95;;;1.58;;
71207;SDS011;58938;49.868;8.646;2023-08-06T08:56:54;3.05;;;1.23;;
71207;SDS011;58938;49.868;8.646;2023-08-06T08:59:21;7.30;;;3.05;;
71207;SDS011;58938;49.868;8.646;2023-08-06T09:01:47;4.07;;;1.70;;
71207;SDS011;58938;49.868;8.646;2023-08-06T09:04:18;4.93;;;1.15;;
71207;SDS011;58938;49.868;8.646;2023-08-06T09:06:46;4.55;;;1.30;;
71207;SDS011;58938;49.868;8.646;2023-08-06T09:09:13;4.25;;;1.70;;
71207;SDS011;58938;49.868;8.646;2023-08-06T09:11:44;3.30;;;1.30;;
71207;SDS011;58938;49.868;8.646;2023-08-06T09:14:11;3.33;;;1.23;;
71207;SDS011;58938;49.868;8.646;2023-08-06T09:16:37;3.75;;;1.80;;
71207;SDS011;58938;49.868;8.646;2023-08-06T09:19:07;3.30;;;1.50;;
71207;SDS011;58938;49.868;8.646;2023-08-06T09:21:33;3.70;;;1.50;;
71207;SDS011;58938;49.868;8.646;2023-08-06T09:24:03;2.70;;;0.90;;
71207;SDS011;58938;49.868;8.646;2023-08-06T09:26:33;3.15;;;1.38;;
71207;SDS011;58938;49.868;8.646;2023-08-06T09:28:59;2.80;;;1.15;;
71207;SDS011;58938;49.868;8.646;2023-08-06T09:31:32;3.70;;;1.10;;
71207;SDS011;58938;49.868;8.646;2023-08-06T09:34:01;3.20;;;1.40;;
71207;SDS011;58938;49.868;8.646;2023-08-06T09:36:28;3.17;;;1.20;;
71207;SDS011;58938;49.868;8.646;2023-08-06T09:38:53;3.63;;;1.58;;
71207;SDS011;58938;49.868;8.646;2023-08-06T09:41:25;4.68;;;1.60;;
71207;SDS011;58938;49.868;8.646;2023-08-06T09:43:53;4.97;;;1.25;;
71207;SDS011;58938;49.868;8.646;2023-08-06T09:46:19;4.18;;;1.42;;
71207;SDS011;58938;49.868;8.646;2023-08-06T09:48:47;3.20;;;1.40;;
71207;SDS011;58938;49.868;8.646;2023-08-06T09:51:14;3.03;;;1.30;;
71207;SDS011;58938;49.868;8.646;2023-08-06T09:53:40;3.05;;;1.30;;
71207;SDS011;58938;49.868;8.646;2023-08-06T09:56:06;4.18;;;1.70;;
71207;SDS011;58938;49.868;8.646;2023-08-06T09:58:32;3.40;;;1.50;;
71207;SDS011;58938;49.868;8.646;2023-08-06T10:00:59;3.73;;;1.30;;
71207;SDS011;58938;49.868;8.646;2023-08-06T10:03:25;3.70;;;1.20;;
71207;SDS011;58938;49.868;8.646;2023-08-06T10:05:54;4.78;;;1.50;;
71207;SDS011;58938;49.868;8.646;2023-08-06T10:08:21;3.60;;;1.40;;
71207;SDS011;58938;49.868;8.646;2023-08-06T10:10:47;3.43;;;1.50;;
71207;SDS011;58938;49.868;8.646;2023-08-06T10:13:13;3.65;;;1.33;;
71207;SDS011;58938;49.868;8.646;2023-08-06T10:15:40;3.17;;;1.15;;
71207;SDS011;58938;49.868;8.646;2023-08-06T10:18:06;3.95;;;1.30;;
71207;SDS011;58938;49.868;8.646;2023-08-06T10:20:34;2.83;;;1.27;;
71207;SDS011;58938;49.868;8.646;2023-08-06T10:23:04;3.17;;;1.30;;
71207;SDS011;58938;49.868;8.646;2023-08-06T10:25:34;2.90;;;1.20;;
71207;SDS011;58938;49.868;8.646;2023-08-06T10:28:00;4.13;;;1.27;;
71207;SDS011;58938;49.868;8.646;2023-08-06T10:30:29;3.30;;;1.10;;
71207;SDS011;58938;49.868;8.646;2023-08-06T10:32:57;3.83;;;1.00;;
71207;SDS011;58938;49.868;8.646;2023-08-06T10:38:04;3.42;;;1.40;;
71207;SDS011;58938;49.868;8.646;2023-08-06T10:40:31;3.65;;;1.67;;
71207;SDS011;58938;49.868;8.646;2023-08-06T10:43:01;2.90;;;1.00;;
71207;SDS011;58938;49.868;8.646;2023-08-06T10:45:27;3.03;;;1.42;;
71207;SDS011;58938;49.868;8.646;2023-08-06T10:47:54;2.50;;;1.00;;
71207;SDS011;58938;49.868;8.646;2023-08-06T10:50:22;2.55;;;1.13;;
71207;SDS011;58938;49.868;8.646;2023-08-06T10:52:48;3.83;;;1.20;;
71207;SDS011;58938;49.868;8.646;2023-08-06T10:55:21;2.50;;;1.05;;
71207;SDS011;58938;49.868;8.646;2023-08-06T10:57:47;2.80;;;1.20;;
71207;SDS011;58938;49.868;8.646;2023-08-06T11:00:13;2.50;;;1.00;;
71207;SDS011;58938;49.868;8.646;2023-08-06T11:02:39;2.40;;;0.90;;
71207;SDS011;58938;49.868;8.646;2023-08-06T11:05:06;2.60;;;1.10;;
71207;SDS011;58938;49.868;8.646;2023-08-06T11:07:32;2.50;;;1.10;;
71207;SDS011;58938;49.868;8.646;2023-08-06T11:10:05;2.42;;;1.08;;
71207;SDS011;58938;49.868;8.646;2023-08-06T11:12:32;2.47;;;0.90;;
71207;SDS011;58938;49.868;8.646;2023-08-06T11:14:58;2.50;;;1.00;;
71207;SDS011;58938;49.868;8.646;2023-08-06T11:17:25;2.58;;;1.15;;
71207;SDS011;58938;49.868;8.646;2023-08-06T11:19:52;3.03;;;1.20;;
71207;SDS011;58938;49.868;8.646;2023-08-06T11:22:20;2.70;;;1.13;;
71207;SDS011;58938;49.868;8.646;2023-08-06T11:24:46;2.40;;;1.00;;
71207;SDS011;58938;49.868;8.646;2023-08-06T11:27:12;2.33;;;0.77;;
71207;SDS011;58938;49.868;8.646;2023-08-06T11:29:39;5.40;;;1.13;;
71207;SDS011;58938;49.868;8.646;2023-08-06T11:32:05;2.35;;;0.95;;
71207;SDS011;58938;49.868;8.646;2023-08-06T11:34:31;2.00;;;0.70;;
71207;SDS011;58938;49.868;8.646;2023-08-06T11:36:57;2.20;;;0.70;;
71207;SDS011;58938;49.868;8.646;2023-08-06T11:39:23;2.15;;;0.80;;
71207;SDS011;58938;49.868;8.646;2023-08-06T11:41:49;2.10;;;0.82;;
71207;SDS011;58938;49.868;8.646;2023-08-06T11:44:19;2.50;;;0.80;;
71207;SDS011;58938;49.868;8.646;2023-08-06T11:46:53;2.13;;;0.80;;
71207;SDS011;58938;49.868;8.646;2023-08-06T11:50:06;2.70;;;1.27;;
71207;SDS011;58938;49.868;8.646;2023-08-06T11:52:19;2.70;;;1.05;;
71207;SDS011;58938;49.868;8.646;2023-08-06T11:54:46;2.75;;;1.23;;
71207;SDS011;58938;49.868;8.646;2023-08-06T11:57:12;2.23;;;0.90;;
71207;SDS011;58938;49.868;8.646;2023-08-06T11:59:38;2.47;;;1.08;;
71207;SDS011;58938;49.868;8.646;2023-08-06T12:02:05;3.50;;;1.27;;
71207;SDS011;58938;49.868;8.646;2023-08-06T12:07:18;2.55;;;0.98;;
71207;SDS011;58938;49.868;8.646;2023-08-06T12:09:43;2.60;;;1.10;;
71207;SDS011;58938;49.868;8.646;2023-08-06T12:12:09;2.83;;;0.80;;
71207;SDS011;58938;49.868;8.646;2023-08-06T12:14:36;3.85;;;0.98;;
71207;SDS011;58938;49.868;8.646;2023-08-06T12:17:02;2.45;;;0.93;;
71207;SDS011;58938;49.868;8.646;2023-08-06T12:19:28;2.30;;;0.90;;
71207;SDS011;58938;49.868;8.646;2023-08-06T12:21:55;3.17;;;0.95;;
71207;SDS011;58938;49.868;8.646;2023-08-06T12:24:21;2.35;;;1.02;;
71207;SDS011;58938;49.868;8.646;2023-08-06T12:26:47;2.92;;;1.17;;
71207;SDS011;58938;49.868;8.646;2023-08-06T12:29:13;2.77;;;0.90;;
71207;SDS011;58938;49.868;8.646;2023-08-06T12:31:39;2.65;;;1.05;;
71207;SDS011;58938;49.868;8.646;2023-08-06T12:34:05;3.85;;;1.10;;
71207;SDS011;58938;49.868;8.646;2023-08-06T12:36:31;3.30;;;1.30;;
71207;SDS011;58938;49.868;8.646;2023-08-06T12:38:57;2.73;;;0.93;;
71207;SDS011;58938;49.868;8.646;2023-08-06T12:41:23;3.00;;;1.00;;
71207;SDS011;58938;49.868;8.646;2023-08-06T12:43:49;4.30;;;1.58;;
71207;SDS011;58938;49.868;8.646;2023-08-06T12:46:15;3.35;;;1.10;;
71207;SDS011;58938;49.868;8.646;2023-08-06T12:48:41;3.07;;;1.00;;
71207;SDS011;58938;49.868;8.646;2023-08-06T12:51:07;3.05;;;1.20;;
71207;SDS011;58938;49.868;8.646;2023-08-06T12:53:33;3.08;;;1.13;;
71207;SDS011;58938;49.868;8.646;2023-08-06T12:55:59;3.33;;;1.33;;
71207;SDS011;58938;49.868;8.646;2023-08-06T12:58:27;4.43;;;1.40;;
71207;SDS011;58938;49.868;8.646;2023-08-06T13:00:53;3.10;;;1.30;;
71207;SDS011;58938;49.868;8.646;2023-08-06T13:03:20;3.40;;;1.50;;
71207;SDS011;58938;49.868;8.646;2023-08-06T13:05:46;3.45;;;1.25;;
71207;SDS011;58938;49.868;8.646;2023-08-06T13:08:12;6.63;;;1.33;;
71207;SDS011;58938;49.868;8.646;2023-08-06T13:10:38;4.75;;;1.05;;
71207;SDS011;58938;49.868;8.646;2023-08-06T13:13:04;2.72;;;0.93;;
71207;SDS011;58938;49.868;8.646;2023-08-06T13:15:30;3.38;;;1.25;;
71207;SDS011;58938;49.868;8.646;2023-08-06T13:17:56;3.57;;;1.37;;
71207;SDS011;58938;49.868;8.646;2023-08-06T13:20:22;3.07;;;1.20;;
71207;SDS011;58938;49.868;8.646;2023-08-06T13:22:48;2.75;;;1.25;;
71207;SDS011;58938;49.868;8.646;2023-08-06T13:25:18;3.20;;;1.42;;
71207;SDS011;58938;49.868;8.646;2023-08-06T13:27:44;2.67;;;1.00;;
71207;SDS011;58938;49.868;8.646;2023-08-06T13:30:11;3.40;;;1.48;;
71207;SDS011;58938;49.868;8.646;2023-08-06T13:32:36;3.57;;;1.40;;
71207;SDS011;58938;49.868;8.646;2023-08-06T13:35:04;3.13;;;1.15;;
71207;SDS011;58938;49.868;8.646;2023-08-06T13:37:30;2.72;;;1.00;;
71207;SDS011;58938;49.868;8.646;2023-08-06T13:39:56;4.38;;;1.30;;
71207;SDS011;58938;49.868;8.646;2023-08-06T13:42:22;4.30;;;1.43;;
71207;SDS011;58938;49.868;8.646;2023-08-06T13:44:48;2.97;;;1.30;;
71207;SDS011;58938;49.868;8.646;2023-08-06T13:47:14;3.13;;;1.40;;
71207;SDS011;58938;49.868;8.646;2023-08-06T13:49:40;2.40;;;0.80;;
71207;SDS011;58938;49.868;8.646;2023-08-06T13:52:06;3.07;;;1.07;;
71207;SDS011;58938;49.868;8.646;2023-08-06T13:54:32;3.15;;;0.90;;
71207;SDS011;58938;49.868;8.646;2023-08-06T13:56:58;4.00;;;1.05;;
71207;SDS011;58938;49.868;8.646;2023-08-06T13:59:24;2.80;;;1.00;;
71207;SDS011;58938;49.868;8.646;2023-08-06T14:01:50;3.07;;;1.00;;
71207;SDS011;58938;49.868;8.646;2023-08-06T14:04:18;2.90;;;1.55;;
71207;SDS011;58938;49.868;8.646;2023-08-06T14:06:45;3.10;;;1.10;;
71207;SDS011;58938;49.868;8.646;2023-08-06T14:09:11;2.90;;;1.00;;
71207;SDS011;58938;49.868;8.646;2023-08-06T14:11:39;2.60;;;1.02;;
71207;SDS011;58938;49.868;8.646;2023-08-06T14:14:05;2.93;;;1.30;;
71207;SDS011;58938;49.868;8.646;2023-08-06T14:16:32;3.50;;;1.30;;
71207;SDS011;58938;49.868;8.646;2023-08-06T14:18:58;2.63;;;0.90;;
71207;SDS011;58938;49.868;8.646;2023-08-06T14:21:24;2.72;;;1.10;;
71207;SDS011;58938;49.868;8.646;2023-08-06T14:23:50;2.63;;;1.03;;
71207;SDS011;58938;49.868;8.646;2023-08-06T14:26:16;3.92;;;1.30;;
71207;SDS011;58938;49.868;8.646;2023-08-06T14:28:42;3.40;;;1.45;;
71207;SDS011;58938;49.868;8.646;2023-08-06T14:31:08;3.15;;;1.10;;
71207;SDS011;58938;49.868;8.646;2023-08-06T14:33:34;2.77;;;1.30;;
71207;SDS011;58938;49.868;8.646;2023-08-06T14:36:00;2.42;;;0.80;;
71207;SDS011;58938;49.868;8.646;2023-08-06T14:38:26;3.75;;;1.20;;
71207;SDS011;58938;49.868;8.646;2023-08-06T14:40:52;2.97;;;1.23;;
71207;SDS011;58938;49.868;8.646;2023-08-06T14:43:18;3.45;;;1.20;;
71207;SDS011;58938;49.868;8.646;2023-08-06T14:45:45;3.50;;;1.27;;
71207;SDS011;58938;49.868;8.646;2023-08-06T14:48:11;3.00;;;1.20;;
71207;SDS011;58938;49.868;8.646;2023-08-06T14:50:37;2.75;;;1.17;;
71207;SDS011;58938;49.868;8.646;2023-08-06T14:53:04;3.65;;;0.85;;
71207;SDS011;58938;49.868;8.646;2023-08-06T14:55:30;2.93;;;1.20;;